Aeroporto :
LOGIN :

Iscrizione | Disclaimer

   EN    FR    IT 

 










Sommario :    VFR   VFR Marginale   IFR   IFR Intensivo   IFR Molto Intensivo
Visibilità : 
Base nubi : 
>= 8 km
>= 3000ft
5 / 8 km
1000 / 3000 ft
1500m / 5 km
500 / 1000 ft
800 / 1500m
200 / 500 ft
< 800m
< 200 ft
Simboli :   Temporali  Nebbia  Neve Forte  Precipitazioni Forti  Vento > 20 kt
SIGMETs :   Varie  Temporali  Ghiacco  Turbolenza  Onda orograficha  Ceneri Vulcaniche






- Altitudine del aeroporto : 876 ft
- Codice IATA : MBX


LJMB - Maribor

ULTIMO METAR :
  • 250130Z AUTO 00000KT 9999 NSC 11/09 Q1027

METARs OBSOLETI :
  • 250100Z AUTO 13002KT 9999 NSC 11/07 Q1027
  • 250030Z AUTO 15002KT 9999 NSC 12/07 Q1028
  • 250000Z AUTO VRB02KT 9999 NSC 11/08 Q1028
  • 242330Z AUTO 34001KT 9999 NSC 11/08 Q1028

TAF TAF LJMB
Valido dal 25 a 00 ore il 26 a 00 ore UTC


242300Z 2500/2524 VRB02KT CAVOK
TEMPO 2510/2518 36010KT SHRA BKN050TCU BKN070
PROB30
TEMPO 2514/2518 VRB10KT -TSRA SCT040CB BKN060



MetMap, La meteo Aeronautica in un colpo d'occhio ! - Copyright ORBIFLY Dicembre 2007 - Disclaimer

ORBIFLY MET'MAP TEAM :

Programmazione e sviluppo : Alexandra Zaïnal
Concezione : Baudouin d'Aumeries
Aiuto per la programmazione : Marc-Olivier Méhu
Supporto tecnico e logistico : Manuel Goepfert
Aiuto per la traduzione : Arnaldo La Scala

Contatto : metmap@orbifly.com




FONTI E CREDITI :

   NOAA